sensor_id;sensor_type;location;lat;lon;timestamp;pressure;altitude;pressure_sealevel;temperature;humidity
69035;BME280;56091;55.756;37.412;2023-01-29T00:00:31;99178.25;;;-2.95;78.18
69035;BME280;56091;55.756;37.412;2023-01-29T00:05:34;99179.56;;;-2.99;78.33
69035;BME280;56091;55.756;37.412;2023-01-29T00:10:35;99174.47;;;-3.01;78.56
69035;BME280;56091;55.756;37.412;2023-01-29T00:15:36;99169.16;;;-2.92;77.89
69035;BME280;56091;55.756;37.412;2023-01-29T00:20:36;99175.81;;;-3.13;77.24
69035;BME280;56091;55.756;37.412;2023-01-29T00:25:37;99126.13;;;-3.65;76.66
69035;BME280;56091;55.756;37.412;2023-01-29T00:30:39;99166.34;;;-3.47;74.91
69035;BME280;56091;55.756;37.412;2023-01-29T00:35:40;99163.03;;;-3.65;74.20
69035;BME280;56091;55.756;37.412;2023-01-29T00:40:41;99160.75;;;-3.60;74.40
69035;BME280;56091;55.756;37.412;2023-01-29T00:46:00;99143.25;;;-3.45;74.37
69035;BME280;56091;55.756;37.412;2023-01-29T00:51:02;99143.03;;;-3.19;72.67
69035;BME280;56091;55.756;37.412;2023-01-29T00:56:03;99148.78;;;-3.23;72.27
69035;BME280;56091;55.756;37.412;2023-01-29T01:01:04;99144.97;;;-3.21;72.01
69035;BME280;56091;55.756;37.412;2023-01-29T01:06:06;99133.44;;;-3.20;72.00
69035;BME280;56091;55.756;37.412;2023-01-29T01:11:07;99130.28;;;-3.07;71.42
69035;BME280;56091;55.756;37.412;2023-01-29T01:16:15;99143.03;;;-3.19;70.98
69035;BME280;56091;55.756;37.412;2023-01-29T01:21:16;99140.22;;;-3.25;72.14
69035;BME280;56091;55.756;37.412;2023-01-29T01:26:17;99134.63;;;-3.30;71.97
69035;BME280;56091;55.756;37.412;2023-01-29T01:31:18;99141.19;;;-3.18;71.88
69035;BME280;56091;55.756;37.412;2023-01-29T01:36:19;99136.75;;;-3.18;71.45
69035;BME280;56091;55.756;37.412;2023-01-29T01:41:21;99138.88;;;-3.21;71.13
69035;BME280;56091;55.756;37.412;2023-01-29T01:46:23;99138.56;;;-3.26;72.01
69035;BME280;56091;55.756;37.412;2023-01-29T01:51:26;99121.59;;;-3.32;71.99
69035;BME280;56091;55.756;37.412;2023-01-29T01:56:32;99108.25;;;-3.22;72.51
69035;BME280;56091;55.756;37.412;2023-01-29T02:01:41;99109.22;;;-3.23;71.50
69035;BME280;56091;55.756;37.412;2023-01-29T02:06:43;99104.63;;;-3.29;72.27
69035;BME280;56091;55.756;37.412;2023-01-29T02:12:09;99081.72;;;-3.37;71.81
69035;BME280;56091;55.756;37.412;2023-01-29T02:17:15;99096.69;;;-3.21;72.01
69035;BME280;56091;55.756;37.412;2023-01-29T02:27:46;99069.69;;;-3.40;72.49
69035;BME280;56091;55.756;37.412;2023-01-29T02:32:58;99062.56;;;-3.31;72.22
69035;BME280;56091;55.756;37.412;2023-01-29T02:48:22;99048.53;;;-3.23;71.79
69035;BME280;56091;55.756;37.412;2023-01-29T03:03:40;99018.91;;;-3.34;72.51
69035;BME280;56091;55.756;37.412;2023-01-29T03:08:46;99024.94;;;-3.25;72.22
69035;BME280;56091;55.756;37.412;2023-01-29T03:13:59;99008.84;;;-3.38;72.39
69035;BME280;56091;55.756;37.412;2023-01-29T03:19:07;99002.75;;;-3.39;72.44
69035;BME280;56091;55.756;37.412;2023-01-29T03:24:34;98982.84;;;-3.41;72.52
69035;BME280;56091;55.756;37.412;2023-01-29T03:29:57;98980.78;;;-3.31;71.51
69035;BME280;56091;55.756;37.412;2023-01-29T03:35:37;98965.63;;;-3.29;71.04
69035;BME280;56091;55.756;37.412;2023-01-29T03:40:46;98958.50;;;-3.28;70.78
69035;BME280;56091;55.756;37.412;2023-01-29T03:46:23;98951.59;;;-3.29;70.75
69035;BME280;56091;55.756;37.412;2023-01-29T03:57:33;98941.06;;;-2.83;73.88
69035;BME280;56091;55.756;37.412;2023-01-29T04:02:58;98935.28;;;-2.79;68.91
69035;BME280;56091;55.756;37.412;2023-01-29T04:08:06;98924.19;;;-2.97;69.01
69035;BME280;56091;55.756;37.412;2023-01-29T04:13:12;98910.94;;;-3.12;70.00
69035;BME280;56091;55.756;37.412;2023-01-29T04:18:16;98929.88;;;-3.08;70.58
69035;BME280;56091;55.756;37.412;2023-01-29T04:23:35;98927.84;;;-2.75;70.23
69035;BME280;56091;55.756;37.412;2023-01-29T04:34:04;98913.16;;;-3.01;70.81
69035;BME280;56091;55.756;37.412;2023-01-29T04:39:17;98914.91;;;-3.16;71.26
69035;BME280;56091;55.756;37.412;2023-01-29T04:50:16;98910.69;;;-3.25;71.88
69035;BME280;56091;55.756;37.412;2023-01-29T05:00:52;98899.84;;;-3.07;70.54
69035;BME280;56091;55.756;37.412;2023-01-29T05:05:54;98892.16;;;-3.17;70.45
69035;BME280;56091;55.756;37.412;2023-01-29T05:10:58;98895.66;;;-3.25;70.59
69035;BME280;56091;55.756;37.412;2023-01-29T05:16:07;98901.31;;;-3.28;70.85
69035;BME280;56091;55.756;37.412;2023-01-29T05:21:09;98895.19;;;-3.28;70.65
69035;BME280;56091;55.756;37.412;2023-01-29T05:26:10;98899.34;;;-3.34;70.77
69035;BME280;56091;55.756;37.412;2023-01-29T05:31:29;98898.06;;;-3.38;70.88
69035;BME280;56091;55.756;37.412;2023-01-29T05:36:30;98901.19;;;-3.35;71.09
69035;BME280;56091;55.756;37.412;2023-01-29T05:41:31;98906.34;;;-3.41;71.70
69035;BME280;56091;55.756;37.412;2023-01-29T05:46:32;98905.50;;;-3.42;72.10
69035;BME280;56091;55.756;37.412;2023-01-29T05:51:32;98904.81;;;-3.36;72.17
69035;BME280;56091;55.756;37.412;2023-01-29T05:56:33;98892.03;;;-3.47;72.21
69035;BME280;56091;55.756;37.412;2023-01-29T06:01:34;98911.78;;;-3.43;72.29
69035;BME280;56091;55.756;37.412;2023-01-29T06:06:35;98899.94;;;-3.47;72.65
69035;BME280;56091;55.756;37.412;2023-01-29T06:11:35;98897.00;;;-3.52;72.76
69035;BME280;56091;55.756;37.412;2023-01-29T06:16:36;98901.09;;;-3.49;72.76
69035;BME280;56091;55.756;37.412;2023-01-29T06:21:37;98877.72;;;-3.53;72.77
69035;BME280;56091;55.756;37.412;2023-01-29T06:26:37;98874.69;;;-3.41;72.35
69035;BME280;56091;55.756;37.412;2023-01-29T06:31:38;98874.88;;;-3.51;72.48
69035;BME280;56091;55.756;37.412;2023-01-29T06:36:39;98865.00;;;-3.49;71.78
69035;BME280;56091;55.756;37.412;2023-01-29T06:41:41;98873.56;;;-3.47;71.59
69035;BME280;56091;55.756;37.412;2023-01-29T06:46:41;98868.78;;;-3.43;71.14
69035;BME280;56091;55.756;37.412;2023-01-29T06:51:42;98854.56;;;-3.42;69.40
69035;BME280;56091;55.756;37.412;2023-01-29T06:56:43;98847.19;;;-3.24;68.96
69035;BME280;56091;55.756;37.412;2023-01-29T07:01:44;98833.41;;;-3.11;68.21
69035;BME280;56091;55.756;37.412;2023-01-29T07:06:45;98823.97;;;-2.90;67.53
69035;BME280;56091;55.756;37.412;2023-01-29T07:11:46;98839.47;;;-2.87;67.42
69035;BME280;56091;55.756;37.412;2023-01-29T07:16:47;98825.28;;;-2.71;67.69
69035;BME280;56091;55.756;37.412;2023-01-29T07:21:48;98828.69;;;-2.63;67.65
69035;BME280;56091;55.756;37.412;2023-01-29T07:26:48;98825.59;;;-2.37;66.98
69035;BME280;56091;55.756;37.412;2023-01-29T07:31:49;98808.56;;;-2.34;66.01
69035;BME280;56091;55.756;37.412;2023-01-29T07:36:53;98818.56;;;-2.14;65.59
69035;BME280;56091;55.756;37.412;2023-01-29T07:41:54;98817.56;;;-2.13;65.74
69035;BME280;56091;55.756;37.412;2023-01-29T07:46:56;98806.25;;;-2.22;65.69
69035;BME280;56091;55.756;37.412;2023-01-29T07:51:57;98805.72;;;-2.18;65.85
69035;BME280;56091;55.756;37.412;2023-01-29T07:56:58;98808.97;;;-1.86;65.40
69035;BME280;56091;55.756;37.412;2023-01-29T08:01:59;98800.03;;;-2.00;64.57
69035;BME280;56091;55.756;37.412;2023-01-29T08:07:00;98786.44;;;-2.33;65.01
69035;BME280;56091;55.756;37.412;2023-01-29T08:12:00;98795.97;;;-2.32;65.25
69035;BME280;56091;55.756;37.412;2023-01-29T08:17:01;98782.69;;;-2.53;65.80
69035;BME280;56091;55.756;37.412;2023-01-29T08:22:03;98779.41;;;-2.41;65.57
69035;BME280;56091;55.756;37.412;2023-01-29T08:27:07;98785.41;;;-2.32;65.54
69035;BME280;56091;55.756;37.412;2023-01-29T08:32:09;98787.41;;;-2.34;64.96
69035;BME280;56091;55.756;37.412;2023-01-29T08:37:10;98794.81;;;-2.29;65.02
69035;BME280;56091;55.756;37.412;2023-01-29T08:42:12;98787.28;;;-2.11;64.33
69035;BME280;56091;55.756;37.412;2023-01-29T08:47:13;98780.69;;;-2.22;64.41
69035;BME280;56091;55.756;37.412;2023-01-29T08:52:14;98773.22;;;-2.33;65.22
69035;BME280;56091;55.756;37.412;2023-01-29T08:57:15;98775.84;;;-2.18;65.09
69035;BME280;56091;55.756;37.412;2023-01-29T09:02:16;98774.47;;;-2.29;64.95
69035;BME280;56091;55.756;37.412;2023-01-29T09:07:16;98782.94;;;-2.33;65.69
69035;BME280;56091;55.756;37.412;2023-01-29T09:12:17;98755.72;;;-2.34;65.65
69035;BME280;56091;55.756;37.412;2023-01-29T09:17:18;98775.41;;;-2.22;64.82
69035;BME280;56091;55.756;37.412;2023-01-29T09:22:19;98745.72;;;-2.39;64.61
69035;BME280;56091;55.756;37.412;2023-01-29T09:27:20;98761.16;;;-2.21;64.18
69035;BME280;56091;55.756;37.412;2023-01-29T09:32:21;98759.25;;;-2.27;64.47
69035;BME280;56091;55.756;37.412;2023-01-29T09:37:22;98738.53;;;-2.08;64.63
69035;BME280;56091;55.756;37.412;2023-01-29T09:42:27;98756.28;;;-2.02;63.88
69035;BME280;56091;55.756;37.412;2023-01-29T09:47:33;98756.59;;;-2.12;63.87
69035;BME280;56091;55.756;37.412;2023-01-29T10:03:10;98730.06;;;-2.19;64.77
69035;BME280;56091;55.756;37.412;2023-01-29T10:14:10;98708.34;;;-1.99;64.12
69035;BME280;56091;55.756;37.412;2023-01-29T10:24:36;98660.22;;;-1.88;63.78
69035;BME280;56091;55.756;37.412;2023-01-29T10:29:40;98649.63;;;-1.94;63.93
69035;BME280;56091;55.756;37.412;2023-01-29T10:39:58;98623.28;;;-1.81;63.57
69035;BME280;56091;55.756;37.412;2023-01-29T10:45:40;98622.06;;;-1.57;62.79
69035;BME280;56091;55.756;37.412;2023-01-29T10:50:46;98616.81;;;-1.50;61.54
69035;BME280;56091;55.756;37.412;2023-01-29T10:56:00;98629.22;;;-1.51;61.80
69035;BME280;56091;55.756;37.412;2023-01-29T11:01:02;98609.22;;;-1.60;61.94
69035;BME280;56091;55.756;37.412;2023-01-29T11:11:18;98603.44;;;-1.70;62.13
69035;BME280;56091;55.756;37.412;2023-01-29T11:16:22;98596.34;;;-1.63;62.11
69035;BME280;56091;55.756;37.412;2023-01-29T11:21:27;98606.50;;;-1.39;61.95
69035;BME280;56091;55.756;37.412;2023-01-29T11:26:28;98607.09;;;-1.43;61.71
69035;BME280;56091;55.756;37.412;2023-01-29T11:31:35;98589.91;;;-1.54;62.36
69035;BME280;56091;55.756;37.412;2023-01-29T11:36:38;98593.78;;;-1.57;61.90
69035;BME280;56091;55.756;37.412;2023-01-29T11:41:54;98567.94;;;-1.54;62.00
69035;BME280;56091;55.756;37.412;2023-01-29T11:52:16;98568.44;;;-1.72;63.11
69035;BME280;56091;55.756;37.412;2023-01-29T11:57:33;98550.94;;;-1.73;62.66
69035;BME280;56091;55.756;37.412;2023-01-29T12:02:44;98566.44;;;-1.70;63.19
69035;BME280;56091;55.756;37.412;2023-01-29T12:07:48;98573.88;;;-1.81;63.52
69035;BME280;56091;55.756;37.412;2023-01-29T12:12:50;98550.56;;;-1.99;64.91
69035;BME280;56091;55.756;37.412;2023-01-29T12:18:31;98537.53;;;-2.00;65.03
69035;BME280;56091;55.756;37.412;2023-01-29T12:23:37;98552.94;;;-2.04;66.06
69035;BME280;56091;55.756;37.412;2023-01-29T12:39:16;98569.50;;;-2.17;67.40
69035;BME280;56091;55.756;37.412;2023-01-29T12:44:25;98564.00;;;-2.22;67.99
69035;BME280;56091;55.756;37.412;2023-01-29T12:49:32;98493.03;;;-2.68;68.57
69035;BME280;56091;55.756;37.412;2023-01-29T12:55:00;98578.63;;;-2.19;68.57
69035;BME280;56091;55.756;37.412;2023-01-29T13:00:15;98561.28;;;-2.28;69.14
69035;BME280;56091;55.756;37.412;2023-01-29T13:05:33;98555.19;;;-2.29;69.79
69035;BME280;56091;55.756;37.412;2023-01-29T13:10:42;98543.84;;;-2.23;70.08
69035;BME280;56091;55.756;37.412;2023-01-29T13:15:46;98509.72;;;-2.46;70.45
69035;BME280;56091;55.756;37.412;2023-01-29T13:20:48;98527.72;;;-2.28;70.32
69035;BME280;56091;55.756;37.412;2023-01-29T13:25:53;98530.53;;;-2.36;70.68
69035;BME280;56091;55.756;37.412;2023-01-29T13:36:23;98533.53;;;-2.39;71.00
69035;BME280;56091;55.756;37.412;2023-01-29T13:41:37;98518.44;;;-2.45;71.30
69035;BME280;56091;55.756;37.412;2023-01-29T13:46:40;98531.28;;;-2.42;71.38
69035;BME280;56091;55.756;37.412;2023-01-29T13:51:44;98503.72;;;-2.55;71.92
69035;BME280;56091;55.756;37.412;2023-01-29T13:56:58;98513.56;;;-2.48;71.87
69035;BME280;56091;55.756;37.412;2023-01-29T14:02:01;98495.44;;;-2.51;71.71
69035;BME280;56091;55.756;37.412;2023-01-29T14:12:41;98483.00;;;-2.58;71.86
69035;BME280;56091;55.756;37.412;2023-01-29T14:23:05;98492.78;;;-2.51;71.77
69035;BME280;56091;55.756;37.412;2023-01-29T14:28:18;98493.06;;;-2.46;71.69
69035;BME280;56091;55.756;37.412;2023-01-29T14:33:40;98507.00;;;-2.52;71.37
69035;BME280;56091;55.756;37.412;2023-01-29T14:38:49;98492.63;;;-2.50;71.75
69035;BME280;56091;55.756;37.412;2023-01-29T14:43:50;98492.84;;;-2.45;71.92
69035;BME280;56091;55.756;37.412;2023-01-29T14:48:51;98471.66;;;-2.51;71.62
69035;BME280;56091;55.756;37.412;2023-01-29T14:59:19;98473.72;;;-2.47;72.02
69035;BME280;56091;55.756;37.412;2023-01-29T15:04:26;98470.81;;;-2.30;72.77
69035;BME280;56091;55.756;37.412;2023-01-29T15:14:34;98482.28;;;-2.45;75.17
69035;BME280;56091;55.756;37.412;2023-01-29T15:19:40;98481.88;;;-2.48;76.50
69035;BME280;56091;55.756;37.412;2023-01-29T15:24:45;98469.09;;;-2.66;76.86
69035;BME280;56091;55.756;37.412;2023-01-29T15:29:52;98481.09;;;-2.64;77.46
69035;BME280;56091;55.756;37.412;2023-01-29T15:34:58;98467.22;;;-2.72;78.05
69035;BME280;56091;55.756;37.412;2023-01-29T15:40:00;98486.13;;;-2.69;77.85
69035;BME280;56091;55.756;37.412;2023-01-29T15:45:02;98486.63;;;-2.59;78.91
69035;BME280;56091;55.756;37.412;2023-01-29T15:50:04;98477.28;;;-2.61;78.55
69035;BME280;56091;55.756;37.412;2023-01-29T15:55:05;98395.44;;;-3.04;78.99
69035;BME280;56091;55.756;37.412;2023-01-29T16:00:20;98475.44;;;-2.61;78.62
69035;BME280;56091;55.756;37.412;2023-01-29T16:05:28;98445.66;;;-2.76;78.67
69035;BME280;56091;55.756;37.412;2023-01-29T16:10:30;98462.56;;;-2.70;78.13
69035;BME280;56091;55.756;37.412;2023-01-29T16:15:34;98456.47;;;-2.71;78.66
69035;BME280;56091;55.756;37.412;2023-01-29T16:20:40;98455.00;;;-2.73;77.95
69035;BME280;56091;55.756;37.412;2023-01-29T16:25:44;98459.75;;;-2.69;77.61
69035;BME280;56091;55.756;37.412;2023-01-29T16:30:45;98462.38;;;-2.69;77.14
69035;BME280;56091;55.756;37.412;2023-01-29T16:35:50;98446.59;;;-2.84;77.12
69035;BME280;56091;55.756;37.412;2023-01-29T16:41:26;98459.44;;;-2.81;77.46
69035;BME280;56091;55.756;37.412;2023-01-29T16:46:37;98452.75;;;-2.77;77.25
69035;BME280;56091;55.756;37.412;2023-01-29T16:51:44;98444.00;;;-2.77;76.88
69035;BME280;56091;55.756;37.412;2023-01-29T16:56:48;98433.88;;;-2.73;76.64
69035;BME280;56091;55.756;37.412;2023-01-29T17:01:54;98438.63;;;-2.69;76.17
69035;BME280;56091;55.756;37.412;2023-01-29T17:06:58;98435.56;;;-2.66;75.80
69035;BME280;56091;55.756;37.412;2023-01-29T17:12:07;98429.66;;;-2.68;75.61
69035;BME280;56091;55.756;37.412;2023-01-29T17:17:15;98406.06;;;-2.76;75.88
69035;BME280;56091;55.756;37.412;2023-01-29T17:22:18;98405.47;;;-2.71;77.33
69035;BME280;56091;55.756;37.412;2023-01-29T17:27:21;98380.00;;;-2.58;74.65
69035;BME280;56091;55.756;37.412;2023-01-29T17:32:23;98426.28;;;-2.62;74.92
69035;BME280;56091;55.756;37.412;2023-01-29T17:37:24;98411.34;;;-2.76;74.79
69035;BME280;56091;55.756;37.412;2023-01-29T17:42:30;98416.53;;;-2.83;75.37
69035;BME280;56091;55.756;37.412;2023-01-29T17:47:30;98423.47;;;-2.82;75.72
69035;BME280;56091;55.756;37.412;2023-01-29T17:52:31;98408.66;;;-2.55;75.49
69035;BME280;56091;55.756;37.412;2023-01-29T17:57:32;98390.91;;;-2.67;74.38
69035;BME280;56091;55.756;37.412;2023-01-29T18:02:33;98412.22;;;-2.69;75.08
69035;BME280;56091;55.756;37.412;2023-01-29T18:07:36;98403.56;;;-2.84;75.70
69035;BME280;56091;55.756;37.412;2023-01-29T18:12:38;98389.28;;;-2.90;75.92
69035;BME280;56091;55.756;37.412;2023-01-29T18:17:40;98386.44;;;-2.88;75.77
69035;BME280;56091;55.756;37.412;2023-01-29T18:22:41;98401.72;;;-2.84;75.53
69035;BME280;56091;55.756;37.412;2023-01-29T18:27:41;98392.91;;;-2.91;76.08
69035;BME280;56091;55.756;37.412;2023-01-29T18:32:42;98391.31;;;-2.92;76.50
69035;BME280;56091;55.756;37.412;2023-01-29T18:37:43;98396.38;;;-2.90;76.70
69035;BME280;56091;55.756;37.412;2023-01-29T18:42:45;98378.91;;;-2.91;76.91
69035;BME280;56091;55.756;37.412;2023-01-29T18:47:47;98361.94;;;-3.04;76.82
69035;BME280;56091;55.756;37.412;2023-01-29T18:52:48;98367.47;;;-2.99;76.93
69035;BME280;56091;55.756;37.412;2023-01-29T18:57:53;98392.56;;;-2.88;76.46
69035;BME280;56091;55.756;37.412;2023-01-29T19:02:55;98386.88;;;-2.85;76.60
69035;BME280;56091;55.756;37.412;2023-01-29T19:07:56;98342.03;;;-3.06;76.58
69035;BME280;56091;55.756;37.412;2023-01-29T19:13:00;98349.47;;;-2.88;76.29
69035;BME280;56091;55.756;37.412;2023-01-29T19:18:01;98377.38;;;-2.79;76.10
69035;BME280;56091;55.756;37.412;2023-01-29T19:23:03;98365.47;;;-2.75;76.07
69035;BME280;56091;55.756;37.412;2023-01-29T19:28:05;98365.69;;;-2.70;75.89
69035;BME280;56091;55.756;37.412;2023-01-29T19:33:08;98347.09;;;-2.83;76.19
69035;BME280;56091;55.756;37.412;2023-01-29T19:38:09;98349.41;;;-2.73;75.84
69035;BME280;56091;55.756;37.412;2023-01-29T19:43:09;98343.84;;;-2.85;75.95
69035;BME280;56091;55.756;37.412;2023-01-29T19:48:14;98340.63;;;-2.81;75.84
69035;BME280;56091;55.756;37.412;2023-01-29T19:53:19;98334.34;;;-2.80;76.01
69035;BME280;56091;55.756;37.412;2023-01-29T19:58:20;98339.25;;;-2.77;75.89
69035;BME280;56091;55.756;37.412;2023-01-29T20:03:22;98338.94;;;-2.88;76.29
69035;BME280;56091;55.756;37.412;2023-01-29T20:08:23;98335.53;;;-2.82;77.33
69035;BME280;56091;55.756;37.412;2023-01-29T20:13:24;98313.88;;;-2.99;78.16
69035;BME280;56091;55.756;37.412;2023-01-29T20:18:25;98315.50;;;-2.98;78.99
69035;BME280;56091;55.756;37.412;2023-01-29T20:23:27;98230.41;;;-3.35;79.16
69035;BME280;56091;55.756;37.412;2023-01-29T20:28:29;98283.63;;;-3.03;78.96
69035;BME280;56091;55.756;37.412;2023-01-29T20:33:30;98287.78;;;-2.87;78.48
69035;BME280;56091;55.756;37.412;2023-01-29T20:38:33;98284.16;;;-2.86;77.77
69035;BME280;56091;55.756;37.412;2023-01-29T20:43:34;98277.22;;;-2.87;77.07
69035;BME280;56091;55.756;37.412;2023-01-29T20:48:36;98288.47;;;-2.79;76.92
69035;BME280;56091;55.756;37.412;2023-01-29T20:53:37;98274.66;;;-2.74;76.61
69035;BME280;56091;55.756;37.412;2023-01-29T20:58:38;98278.97;;;-2.66;76.41
69035;BME280;56091;55.756;37.412;2023-01-29T21:03:41;98283.53;;;-2.53;75.68
69035;BME280;56091;55.756;37.412;2023-01-29T21:08:41;98286.97;;;-2.60;75.70
69035;BME280;56091;55.756;37.412;2023-01-29T21:13:42;98264.56;;;-2.64;76.37
69035;BME280;56091;55.756;37.412;2023-01-29T21:18:46;98251.94;;;-2.75;76.73
69035;BME280;56091;55.756;37.412;2023-01-29T21:23:49;98260.03;;;-2.77;77.48
69035;BME280;56091;55.756;37.412;2023-01-29T21:28:52;98267.66;;;-2.88;78.32
69035;BME280;56091;55.756;37.412;2023-01-29T21:33:55;98273.53;;;-2.93;78.30
69035;BME280;56091;55.756;37.412;2023-01-29T21:38:56;98267.72;;;-2.82;78.29
69035;BME280;56091;55.756;37.412;2023-01-29T21:43:57;98263.56;;;-2.98;78.32
69035;BME280;56091;55.756;37.412;2023-01-29T21:48:57;98261.28;;;-3.01;79.14
69035;BME280;56091;55.756;37.412;2023-01-29T21:53:58;98260.81;;;-3.11;79.22
69035;BME280;56091;55.756;37.412;2023-01-29T21:59:10;98257.09;;;-2.88;79.78
69035;BME280;56091;55.756;37.412;2023-01-29T22:04:11;98257.59;;;-2.78;78.18
69035;BME280;56091;55.756;37.412;2023-01-29T22:09:11;98241.25;;;-2.95;78.25
69035;BME280;56091;55.756;37.412;2023-01-29T22:14:13;98238.00;;;-2.90;78.47
69035;BME280;56091;55.756;37.412;2023-01-29T22:19:17;98216.56;;;-2.81;77.95
69035;BME280;56091;55.756;37.412;2023-01-29T22:24:19;98222.25;;;-2.77;77.79
69035;BME280;56091;55.756;37.412;2023-01-29T22:29:20;98206.88;;;-2.67;77.27
69035;BME280;56091;55.756;37.412;2023-01-29T22:34:21;98204.00;;;-2.72;77.30
69035;BME280;56091;55.756;37.412;2023-01-29T22:39:22;98178.78;;;-2.81;77.58
69035;BME280;56091;55.756;37.412;2023-01-29T22:44:22;98175.31;;;-2.82;77.11
69035;BME280;56091;55.756;37.412;2023-01-29T22:49:23;98155.63;;;-2.86;77.34
69035;BME280;56091;55.756;37.412;2023-01-29T22:54:25;98160.91;;;-2.86;77.56
69035;BME280;56091;55.756;37.412;2023-01-29T22:59:25;98110.63;;;-3.12;77.31
69035;BME280;56091;55.756;37.412;2023-01-29T23:04:26;98171.72;;;-2.74;77.34
69035;BME280;56091;55.756;37.412;2023-01-29T23:09:27;98163.19;;;-2.76;77.38
69035;BME280;56091;55.756;37.412;2023-01-29T23:14:28;98155.69;;;-2.66;77.03
69035;BME280;56091;55.756;37.412;2023-01-29T23:19:28;98107.13;;;-2.78;76.61
69035;BME280;56091;55.756;37.412;2023-01-29T23:24:29;98141.53;;;-2.51;76.50
69035;BME280;56091;55.756;37.412;2023-01-29T23:29:30;98124.81;;;-2.72;77.25
69035;BME280;56091;55.756;37.412;2023-01-29T23:34:31;98140.22;;;-2.82;77.84
69035;BME280;56091;55.756;37.412;2023-01-29T23:39:32;98131.31;;;-2.75;78.05
69035;BME280;56091;55.756;37.412;2023-01-29T23:44:33;98123.25;;;-2.60;78.02
69035;BME280;56091;55.756;37.412;2023-01-29T23:49:35;98077.06;;;-2.84;78.18
69035;BME280;56091;55.756;37.412;2023-01-29T23:54:35;98099.25;;;-2.65;78.41
69035;BME280;56091;55.756;37.412;2023-01-29T23:59:36;98078.28;;;-2.86;78.50
